createdAt,value
2022-10-09T00:01:26.568Z,3.20
2022-10-09T00:03:56.836Z,2.80
2022-10-09T00:06:28.363Z,3.10
2022-10-09T00:08:56.746Z,2.70
2022-10-09T00:11:26.710Z,2.80
2022-10-09T00:13:55.706Z,2.80
2022-10-09T00:16:25.646Z,3.40
2022-10-09T00:18:54.244Z,3.10
2022-10-09T00:21:32.396Z,3.60
2022-10-09T00:24:02.679Z,3.00
2022-10-09T00:26:31.137Z,3.00
2022-10-09T00:28:59.680Z,3.80
2022-10-09T00:31:27.601Z,3.00
2022-10-09T00:33:55.731Z,2.80
2022-10-09T00:36:25.387Z,3.40
2022-10-09T00:38:54.383Z,3.30
2022-10-09T00:41:25.622Z,3.00
2022-10-09T00:43:59.423Z,3.40
2022-10-09T00:46:45.002Z,3.10
2022-10-09T00:49:20.569Z,3.70
2022-10-09T00:51:50.007Z,3.30
2022-10-09T00:56:49.847Z,2.90
2022-10-09T00:59:18.666Z,2.90
2022-10-09T01:01:49.439Z,3.20
2022-10-09T01:04:19.383Z,3.50
2022-10-09T01:06:57.891Z,3.00
2022-10-09T01:09:49.551Z,4.20
2022-10-09T01:12:32.500Z,3.00
2022-10-09T01:15:27.609Z,2.70
2022-10-09T01:18:34.611Z,2.30
2022-10-09T01:21:17.770Z,2.80
2022-10-09T01:24:13.755Z,2.90
2022-10-09T01:26:59.065Z,2.50
2022-10-09T01:29:35.355Z,2.10
2022-10-09T01:32:05.835Z,2.40
2022-10-09T01:34:33.999Z,2.20
2022-10-09T01:37:08.941Z,2.50
2022-10-09T01:39:37.574Z,2.50
2022-10-09T01:42:05.921Z,2.40
2022-10-09T01:44:35.019Z,2.50
2022-10-09T01:52:33.182Z,2.50
2022-10-09T01:55:32.022Z,2.60
2022-10-09T01:58:18.124Z,2.90
2022-10-09T02:00:54.775Z,2.50
2022-10-09T02:03:24.504Z,2.50
2022-10-09T02:05:53.927Z,2.00
2022-10-09T02:08:24.154Z,2.50
2022-10-09T02:10:57.029Z,1.90
2022-10-09T02:13:24.924Z,2.40
2022-10-09T02:16:02.951Z,2.20
2022-10-09T02:18:50.426Z,2.20
2022-10-09T02:21:26.391Z,2.10
2022-10-09T02:23:57.941Z,2.00
2022-10-09T02:26:27.003Z,2.10
2022-10-09T02:28:55.062Z,2.10
2022-10-09T02:31:29.021Z,2.10
2022-10-09T02:33:58.610Z,1.90
2022-10-09T02:36:27.388Z,2.30
2022-10-09T02:38:56.485Z,2.20
2022-10-09T02:41:25.369Z,2.40
2022-10-09T02:43:53.693Z,1.90
2022-10-09T02:46:21.975Z,2.00
2022-10-09T02:48:49.950Z,2.00
2022-10-09T02:51:17.950Z,2.30
2022-10-09T02:53:45.819Z,1.80
2022-10-09T02:56:13.915Z,2.20
2022-10-09T02:58:41.631Z,2.00
2022-10-09T03:01:09.529Z,2.40
2022-10-09T03:03:39.752Z,2.70
2022-10-09T03:06:15.931Z,2.10
2022-10-09T03:08:47.690Z,2.40
2022-10-09T03:11:16.767Z,2.30
2022-10-09T03:13:45.087Z,2.30
2022-10-09T03:16:16.195Z,2.40
2022-10-09T03:18:44.293Z,2.60
2022-10-09T03:21:14.922Z,2.00
2022-10-09T03:23:43.164Z,2.20
2022-10-09T03:26:13.353Z,2.30
2022-10-09T03:28:47.625Z,2.70
2022-10-09T03:31:33.405Z,2.00
2022-10-09T03:34:05.648Z,2.30
2022-10-09T03:36:33.434Z,2.50
2022-10-09T03:39:01.054Z,2.30
2022-10-09T03:41:29.064Z,2.10
2022-10-09T03:43:57.044Z,2.20
2022-10-09T03:46:24.886Z,2.10
2022-10-09T03:48:52.709Z,2.30
2022-10-09T03:51:20.908Z,2.80
2022-10-09T03:53:48.519Z,2.10
2022-10-09T03:56:16.413Z,2.50
2022-10-09T03:58:44.305Z,2.40
2022-10-09T04:01:11.981Z,2.20
2022-10-09T04:03:39.843Z,2.30
2022-10-09T04:06:07.776Z,2.90
2022-10-09T04:08:35.483Z,2.40
2022-10-09T04:11:03.816Z,2.70
2022-10-09T04:13:31.708Z,2.80
2022-10-09T04:15:59.372Z,2.00
2022-10-09T04:18:27.335Z,2.60
2022-10-09T04:20:56.913Z,2.30
2022-10-09T04:25:59.750Z,3.40
2022-10-09T04:28:30.771Z,2.50
2022-10-09T04:30:59.589Z,2.20
2022-10-09T04:33:27.810Z,2.40
2022-10-09T04:35:57.186Z,1.90
2022-10-09T04:38:25.521Z,1.80
2022-10-09T04:40:58.102Z,2.10
2022-10-09T04:43:28.241Z,2.00
2022-10-09T04:45:56.334Z,2.20
2022-10-09T04:48:24.718Z,2.20
2022-10-09T04:50:52.652Z,2.50
2022-10-09T04:53:20.371Z,2.30
2022-10-09T04:55:48.100Z,2.40
2022-10-09T04:58:15.863Z,2.20
2022-10-09T05:00:46.730Z,1.90
2022-10-09T05:03:15.012Z,2.40
2022-10-09T05:05:43.207Z,2.30
2022-10-09T05:08:10.946Z,2.60
2022-10-09T05:10:38.792Z,2.30
2022-10-09T05:13:06.799Z,2.40
2022-10-09T05:15:37.729Z,2.00
2022-10-09T05:18:05.517Z,2.00
2022-10-09T05:20:33.330Z,2.00
2022-10-09T05:23:00.964Z,2.00
2022-10-09T05:25:28.810Z,2.80
2022-10-09T05:27:56.820Z,2.10
2022-10-09T05:30:24.766Z,2.10
2022-10-09T05:32:52.976Z,1.90
2022-10-09T05:35:20.623Z,1.80
2022-10-09T05:37:48.289Z,2.40
2022-10-09T05:40:16.204Z,2.20
2022-10-09T05:42:44.023Z,2.40
2022-10-09T05:45:11.690Z,1.90
2022-10-09T05:47:39.459Z,1.80
2022-10-09T05:50:07.413Z,2.80
2022-10-09T05:52:35.663Z,3.30
2022-10-09T05:55:03.461Z,4.90
2022-10-09T05:57:31.669Z,5.00
2022-10-09T05:59:59.331Z,5.30
2022-10-09T06:02:26.989Z,3.50
2022-10-09T06:04:55.783Z,3.70
2022-10-09T06:07:23.402Z,3.00
2022-10-09T06:09:52.350Z,2.80
2022-10-09T06:12:20.150Z,2.70
2022-10-09T06:14:47.752Z,2.50
2022-10-09T06:17:15.507Z,2.90
2022-10-09T06:19:43.132Z,2.50
2022-10-09T06:22:10.825Z,3.00
2022-10-09T06:24:38.865Z,2.80
2022-10-09T06:27:06.629Z,2.40
2022-10-09T06:29:34.645Z,2.50
2022-10-09T06:32:02.238Z,2.80
2022-10-09T06:34:29.876Z,2.10
2022-10-09T06:36:57.544Z,3.00
2022-10-09T06:39:26.581Z,2.30
2022-10-09T06:41:54.272Z,3.20
2022-10-09T06:44:30.846Z,2.20
2022-10-09T06:46:58.583Z,2.80
2022-10-09T06:49:26.567Z,2.40
2022-10-09T06:51:54.131Z,2.30
2022-10-09T06:54:21.924Z,2.30
2022-10-09T06:56:49.575Z,2.90
2022-10-09T06:59:17.475Z,2.50
2022-10-09T07:01:45.352Z,2.20
2022-10-09T07:04:14.834Z,2.20
2022-10-09T07:06:45.422Z,2.30
2022-10-09T07:09:15.072Z,2.50
2022-10-09T07:11:46.048Z,3.10
2022-10-09T07:14:15.836Z,2.30
2022-10-09T07:16:46.282Z,2.50
2022-10-09T07:19:15.719Z,2.40
2022-10-09T07:21:46.426Z,2.50
2022-10-09T07:24:15.282Z,3.10
2022-10-09T07:26:46.735Z,2.40
2022-10-09T07:29:17.720Z,2.20
2022-10-09T07:31:45.537Z,2.50
2022-10-09T07:34:13.508Z,3.00
2022-10-09T07:36:41.352Z,2.20
2022-10-09T07:39:09.116Z,2.80
2022-10-09T07:41:37.084Z,2.40
2022-10-09T07:44:04.987Z,2.40
2022-10-09T07:46:34.388Z,2.60
2022-10-09T07:49:03.889Z,3.70
2022-10-09T07:51:32.600Z,2.10
2022-10-09T07:54:02.259Z,2.10
2022-10-09T07:56:36.020Z,1.90
2022-10-09T07:59:06.352Z,2.30
2022-10-09T08:01:35.908Z,2.00
2022-10-09T08:04:04.402Z,2.60
2022-10-09T08:06:33.306Z,2.00
2022-10-09T08:09:03.110Z,2.30
2022-10-09T08:11:32.900Z,2.00
2022-10-09T08:14:00.952Z,2.60
2022-10-09T08:16:28.886Z,2.40
2022-10-09T08:18:58.974Z,2.30
2022-10-09T08:21:28.558Z,1.90
2022-10-09T08:23:58.021Z,1.90
2022-10-09T08:26:29.028Z,2.30
2022-10-09T08:29:02.548Z,2.30
2022-10-09T08:31:32.158Z,1.80
2022-10-09T08:34:02.925Z,2.10
2022-10-09T08:36:31.977Z,1.90
2022-10-09T08:39:00.046Z,2.20
2022-10-09T08:41:47.409Z,1.90
2022-10-09T08:44:20.863Z,1.60
2022-10-09T08:46:59.467Z,1.80
2022-10-09T08:49:35.077Z,1.70
2022-10-09T08:52:31.980Z,2.10
2022-10-09T08:55:06.642Z,2.40
2022-10-09T08:57:34.600Z,2.30
2022-10-09T09:00:02.253Z,2.10
2022-10-09T09:02:53.755Z,1.40
2022-10-09T09:05:35.302Z,1.80
2022-10-09T09:08:38.254Z,1.90
2022-10-09T09:11:28.991Z,1.70
2022-10-09T09:14:09.049Z,2.00
2022-10-09T09:16:43.591Z,1.30
2022-10-09T09:19:48.866Z,1.50
2022-10-09T09:22:17.211Z,2.10
2022-10-09T09:24:55.504Z,1.40
2022-10-09T09:27:31.694Z,1.50
2022-10-09T09:30:15.085Z,1.60
2022-10-09T09:33:19.527Z,1.10
2022-10-09T09:35:47.160Z,1.30
2022-10-09T09:38:16.076Z,1.30
2022-10-09T09:40:47.214Z,1.10
2022-10-09T09:43:19.395Z,1.20
2022-10-09T09:45:49.035Z,1.30
2022-10-09T09:51:10.236Z,1.10
2022-10-09T09:53:43.604Z,1.20
2022-10-09T09:56:11.723Z,1.40
2022-10-09T09:58:49.095Z,1.40
2022-10-09T10:01:29.516Z,1.70
2022-10-09T10:03:59.692Z,2.30
2022-10-09T10:06:34.918Z,1.50
2022-10-09T10:09:14.865Z,1.40
2022-10-09T10:11:55.951Z,1.50
2022-10-09T10:14:23.861Z,1.10
2022-10-09T10:16:54.055Z,1.10
2022-10-09T10:19:30.645Z,1.40
2022-10-09T10:22:02.390Z,1.60
2022-10-09T10:24:39.924Z,1.20
2022-10-09T10:27:21.820Z,0.90
2022-10-09T10:29:53.539Z,1.00
2022-10-09T10:32:35.007Z,1.10
2022-10-09T10:35:09.838Z,1.20
2022-10-09T10:38:15.050Z,1.20
2022-10-09T10:40:47.263Z,1.40
2022-10-09T10:43:26.117Z,1.50
2022-10-09T10:46:12.722Z,1.40
2022-10-09T10:48:47.172Z,0.90
2022-10-09T10:51:25.359Z,1.10
2022-10-09T10:53:59.368Z,1.10
2022-10-09T10:56:40.124Z,0.90
2022-10-09T10:59:07.991Z,0.90
2022-10-09T11:02:12.663Z,1.00
2022-10-09T11:05:18.018Z,1.90
2022-10-09T11:07:48.399Z,1.20
2022-10-09T11:10:24.232Z,1.50
2022-10-09T11:13:05.002Z,1.10
2022-10-09T11:15:39.736Z,1.10
2022-10-09T11:18:21.593Z,1.00
2022-10-09T11:21:00.193Z,1.10
2022-10-09T11:23:43.231Z,1.00
2022-10-09T11:26:29.067Z,1.00
2022-10-09T11:29:05.796Z,1.00
2022-10-09T11:32:04.109Z,1.20
2022-10-09T11:34:43.754Z,1.10
2022-10-09T11:37:24.568Z,0.90
2022-10-09T11:39:52.676Z,0.80
2022-10-09T11:42:25.679Z,1.00
2022-10-09T11:45:04.550Z,1.10
2022-10-09T11:47:55.251Z,0.70
2022-10-09T11:50:41.993Z,1.40
2022-10-09T11:53:14.642Z,1.10
2022-10-09T11:55:43.586Z,1.00
2022-10-09T11:58:23.592Z,1.10
2022-10-09T12:00:56.936Z,1.10
2022-10-09T12:03:33.179Z,1.10
2022-10-09T12:06:12.410Z,0.90
2022-10-09T12:11:14.081Z,0.90
2022-10-09T12:13:44.432Z,1.00
2022-10-09T12:16:45.194Z,0.90
2022-10-09T12:19:38.309Z,1.00
2022-10-09T12:22:13.223Z,1.00
2022-10-09T12:24:45.587Z,1.00
2022-10-09T12:27:30.759Z,0.80
2022-10-09T12:30:05.214Z,0.60
2022-10-09T12:32:39.885Z,0.70
2022-10-09T12:35:29.270Z,0.80
2022-10-09T12:37:57.512Z,0.80
2022-10-09T12:40:29.162Z,0.80
2022-10-09T12:43:00.651Z,0.60
2022-10-09T12:45:31.982Z,0.80
2022-10-09T12:48:10.108Z,0.40
2022-10-09T12:50:38.231Z,0.90
2022-10-09T12:53:20.633Z,0.90
2022-10-09T12:55:55.426Z,1.00
2022-10-09T12:58:39.515Z,0.70
2022-10-09T13:01:12.330Z,0.90
2022-10-09T13:03:43.261Z,0.90
2022-10-09T13:06:17.424Z,0.70
2022-10-09T13:08:46.482Z,0.60
2022-10-09T13:11:38.163Z,0.90
2022-10-09T13:14:07.523Z,0.70
2022-10-09T13:16:44.756Z,0.90
2022-10-09T13:19:26.841Z,0.70
2022-10-09T13:22:18.862Z,0.90
2022-10-09T13:24:49.811Z,0.80
2022-10-09T13:27:19.643Z,0.90
2022-10-09T13:29:48.236Z,0.70
2022-10-09T13:32:17.900Z,0.80
2022-10-09T13:34:46.410Z,0.90
2022-10-09T13:37:15.704Z,0.70
2022-10-09T13:39:43.986Z,1.00
2022-10-09T13:42:15.179Z,0.80
2022-10-09T13:44:43.524Z,0.80
2022-10-09T13:47:11.270Z,0.80
2022-10-09T13:49:39.178Z,0.60
2022-10-09T13:52:07.318Z,0.80
2022-10-09T13:54:35.044Z,0.60
2022-10-09T13:57:03.984Z,0.70
2022-10-09T14:06:56.871Z,0.60
2022-10-09T14:09:24.766Z,0.70
2022-10-09T14:11:52.531Z,0.60
2022-10-09T14:14:22.357Z,0.90
2022-10-09T14:16:51.050Z,0.60
2022-10-09T14:19:19.182Z,0.70
2022-10-09T14:21:49.432Z,0.80
2022-10-09T14:24:18.685Z,0.80
2022-10-09T14:26:51.380Z,0.70
2022-10-09T14:29:19.657Z,0.60
2022-10-09T14:31:50.175Z,0.80
2022-10-09T14:34:17.997Z,0.70
2022-10-09T14:36:46.170Z,0.80
2022-10-09T14:41:42.038Z,0.60
2022-10-09T14:44:10.571Z,0.90
2022-10-09T14:46:39.403Z,1.00
2022-10-09T14:49:08.073Z,0.80
2022-10-09T14:51:39.049Z,0.90
2022-10-09T14:54:08.722Z,0.80
2022-10-09T14:56:36.463Z,0.60
2022-10-09T14:59:08.618Z,0.90
2022-10-09T15:01:37.106Z,0.80
2022-10-09T15:04:06.159Z,0.90
2022-10-09T15:06:34.220Z,2.30
2022-10-09T15:09:06.241Z,1.70
2022-10-09T15:11:35.758Z,1.40
2022-10-09T15:14:05.259Z,1.10
2022-10-09T15:16:33.082Z,1.00
2022-10-09T15:19:01.710Z,1.10
2022-10-09T15:21:31.973Z,1.20
2022-10-09T15:24:01.444Z,1.20
2022-10-09T15:26:33.211Z,1.70
2022-10-09T15:29:02.696Z,1.50
2022-10-09T15:31:33.701Z,1.20
2022-10-09T15:34:02.728Z,0.90
2022-10-09T15:36:34.363Z,1.10
2022-10-09T15:39:09.090Z,1.30
2022-10-09T15:41:38.628Z,1.00
2022-10-09T15:44:17.131Z,1.00
2022-10-09T15:46:46.292Z,1.20
2022-10-09T15:49:14.313Z,1.20
2022-10-09T15:51:42.188Z,1.50
2022-10-09T15:54:11.524Z,1.20
2022-10-09T15:59:12.244Z,1.20
2022-10-09T16:01:40.335Z,1.70
2022-10-09T16:04:09.195Z,1.60
2022-10-09T16:06:36.875Z,1.50
2022-10-09T16:09:05.520Z,1.60
2022-10-09T16:11:34.584Z,1.80
2022-10-09T16:14:02.673Z,1.60
2022-10-09T16:16:30.695Z,1.80
2022-10-09T16:19:03.441Z,1.70
2022-10-09T16:21:31.336Z,2.20
2022-10-09T16:23:59.847Z,2.10
2022-10-09T16:26:29.753Z,1.70
2022-10-09T16:28:59.961Z,2.20
2022-10-09T16:31:35.464Z,2.60
2022-10-09T16:34:06.147Z,2.40
2022-10-09T16:36:34.457Z,2.70
2022-10-09T16:39:02.389Z,2.50
2022-10-09T16:41:30.109Z,2.70
2022-10-09T16:44:00.271Z,2.90
2022-10-09T16:49:01.985Z,3.30
2022-10-09T16:51:33.737Z,3.20
2022-10-09T16:54:04.602Z,3.50
2022-10-09T16:56:35.702Z,3.50
2022-10-09T16:59:07.118Z,2.80
2022-10-09T17:01:40.514Z,3.20
2022-10-09T17:04:08.315Z,2.90
2022-10-09T17:06:36.093Z,3.70
2022-10-09T17:09:13.497Z,3.60
2022-10-09T17:11:42.907Z,3.20
2022-10-09T17:14:11.910Z,3.00
2022-10-09T17:16:41.923Z,3.20
2022-10-09T17:19:09.852Z,2.90
2022-10-09T17:21:37.757Z,2.70
2022-10-09T17:24:05.879Z,2.70
2022-10-09T17:26:34.934Z,3.00
2022-10-09T17:29:03.882Z,3.30
2022-10-09T17:31:32.121Z,3.20
2022-10-09T17:34:03.188Z,3.00
2022-10-09T17:36:34.752Z,3.20
2022-10-09T17:39:04.209Z,3.00
2022-10-09T17:41:32.016Z,3.00
2022-10-09T17:44:00.154Z,3.40
2022-10-09T17:46:30.594Z,2.90
2022-10-09T17:48:59.599Z,3.10
2022-10-09T17:51:30.319Z,2.60
2022-10-09T17:54:01.391Z,2.80
2022-10-09T17:56:30.472Z,3.10
2022-10-09T17:58:59.885Z,3.80
2022-10-09T18:01:28.378Z,3.70
2022-10-09T18:03:56.683Z,3.50
2022-10-09T18:06:25.074Z,3.80
2022-10-09T18:08:55.535Z,3.40
2022-10-09T18:11:24.675Z,3.90
2022-10-09T18:13:53.542Z,4.30
2022-10-09T18:16:35.194Z,5.10
2022-10-09T18:19:14.236Z,5.50
2022-10-09T18:21:47.302Z,5.90
2022-10-09T18:24:15.821Z,6.90
2022-10-09T18:26:44.597Z,7.00
2022-10-09T18:29:12.685Z,7.20
2022-10-09T18:31:40.610Z,7.10
2022-10-09T18:34:09.844Z,6.70
2022-10-09T18:36:38.007Z,6.80
2022-10-09T18:39:08.525Z,7.20
2022-10-09T18:41:37.670Z,7.20
2022-10-09T18:44:07.467Z,7.20
2022-10-09T18:46:39.370Z,7.10
2022-10-09T18:49:13.541Z,7.10
2022-10-09T18:51:43.410Z,6.10
2022-10-09T18:54:17.182Z,6.70
2022-10-09T18:56:46.655Z,6.30
2022-10-09T18:59:18.289Z,6.20
2022-10-09T19:01:46.139Z,7.10
2022-10-09T19:04:14.029Z,5.60
2022-10-09T19:06:41.897Z,6.20
2022-10-09T19:09:09.523Z,7.10
2022-10-09T19:11:37.379Z,6.80
2022-10-09T19:14:05.396Z,5.80
2022-10-09T19:16:34.615Z,6.20
2022-10-09T19:19:04.568Z,6.10
2022-10-09T19:21:32.435Z,6.50
2022-10-09T19:24:06.376Z,7.40
2022-10-09T19:26:35.373Z,7.50
2022-10-09T19:29:05.120Z,7.20
2022-10-09T19:31:34.526Z,7.40
2022-10-09T19:34:04.656Z,7.20
2022-10-09T19:36:34.337Z,7.00
2022-10-09T19:39:08.034Z,6.70
2022-10-09T19:41:36.550Z,7.10
2022-10-09T19:44:04.183Z,7.30
2022-10-09T19:46:32.246Z,7.40
2022-10-09T19:49:00.779Z,7.40
2022-10-09T19:51:28.433Z,6.30
2022-10-09T19:53:56.328Z,6.30
2022-10-09T19:56:26.871Z,6.60
2022-10-09T19:58:56.527Z,8.80
2022-10-09T20:01:27.016Z,5.90
2022-10-09T20:03:59.997Z,5.50
2022-10-09T20:06:28.593Z,5.40
2022-10-09T20:08:56.904Z,6.10
2022-10-09T20:11:26.497Z,6.00
2022-10-09T20:13:56.173Z,6.20
2022-10-09T20:16:25.917Z,6.10
2022-10-09T20:18:54.817Z,5.60
2022-10-09T20:21:22.546Z,5.20
2022-10-09T20:23:51.005Z,5.00
2022-10-09T20:26:20.877Z,5.50
2022-10-09T20:28:49.290Z,5.40
2022-10-09T20:31:19.556Z,4.70
2022-10-09T20:33:48.349Z,4.90
2022-10-09T20:36:31.566Z,4.70
2022-10-09T20:39:01.111Z,4.60
2022-10-09T20:43:59.805Z,4.00
2022-10-09T20:46:30.415Z,4.50
2022-10-09T20:48:58.987Z,4.20
2022-10-09T20:51:26.886Z,3.20
2022-10-09T20:53:59.722Z,3.90
2022-10-09T20:56:30.293Z,3.80
2022-10-09T20:58:59.475Z,3.50
2022-10-09T21:01:28.514Z,4.00
2022-10-09T21:03:59.258Z,4.10
2022-10-09T21:06:27.636Z,3.90
2022-10-09T21:08:56.843Z,4.20
2022-10-09T21:11:25.193Z,4.30
2022-10-09T21:13:55.322Z,3.70
2022-10-09T21:16:24.471Z,4.00
2022-10-09T21:19:05.528Z,3.70
2022-10-09T21:21:34.122Z,3.40
2022-10-09T21:24:02.514Z,4.30
2022-10-09T21:26:35.451Z,4.60
2022-10-09T21:29:05.776Z,4.10
2022-10-09T21:31:34.206Z,5.30
2022-10-09T21:34:02.498Z,4.30
2022-10-09T21:37:08.852Z,4.90
2022-10-09T21:39:35.230Z,4.60
2022-10-09T21:42:02.907Z,4.10
2022-10-09T21:44:30.653Z,4.80
2022-10-09T21:46:58.464Z,4.70
2022-10-09T21:49:27.663Z,4.50
2022-10-09T21:51:55.679Z,5.40
2022-10-09T21:54:23.652Z,4.60
2022-10-09T21:56:51.921Z,5.20
2022-10-09T21:59:20.010Z,5.00
2022-10-09T22:01:47.708Z,4.70
2022-10-09T22:04:15.477Z,4.80
2022-10-09T22:06:43.467Z,5.00
2022-10-09T22:09:12.215Z,5.10
2022-10-09T22:11:40.044Z,4.00
2022-10-09T22:14:07.983Z,4.40
2022-10-09T22:16:35.759Z,4.80
2022-10-09T22:19:03.747Z,5.50
2022-10-09T22:21:31.466Z,4.90
2022-10-09T22:24:00.196Z,4.60
2022-10-09T22:26:28.012Z,4.80
2022-10-09T22:28:56.193Z,4.80
2022-10-09T22:31:26.107Z,4.90
2022-10-09T22:33:56.771Z,4.90
2022-10-09T22:36:27.177Z,4.60
2022-10-09T22:38:57.764Z,4.20
2022-10-09T22:41:26.827Z,5.10
2022-10-09T22:43:56.569Z,5.20
2022-10-09T22:46:27.132Z,5.50
2022-10-09T22:48:55.040Z,5.20
2022-10-09T22:51:24.663Z,6.50
2022-10-09T22:53:52.438Z,5.80
2022-10-09T22:56:26.171Z,5.60
2022-10-09T22:58:54.631Z,6.20
2022-10-09T23:01:40.142Z,6.30
2022-10-09T23:04:11.751Z,6.30
2022-10-09T23:06:40.424Z,5.30
2022-10-09T23:09:10.827Z,5.70
2022-10-09T23:11:38.752Z,5.60
2022-10-09T23:14:07.275Z,6.30
2022-10-09T23:16:34.990Z,6.70
2022-10-09T23:19:06.952Z,24.80
2022-10-09T23:21:37.143Z,6.00
2022-10-09T23:24:09.192Z,5.80
2022-10-09T23:26:37.224Z,5.80
2022-10-09T23:29:12.867Z,6.10
2022-10-09T23:31:40.919Z,6.10
2022-10-09T23:34:08.679Z,6.50
2022-10-09T23:36:36.424Z,6.40
2022-10-09T23:39:05.859Z,6.50
2022-10-09T23:41:33.890Z,6.60
2022-10-09T23:44:01.955Z,6.20
2022-10-09T23:46:34.266Z,6.40
2022-10-09T23:49:02.204Z,5.90
2022-10-09T23:51:30.575Z,6.00
2022-10-09T23:53:59.002Z,5.20
2022-10-09T23:56:36.378Z,6.00
2022-10-09T23:59:10.482Z,5.20
